Time;durP1;ratioP1;P1;durP2;ratioP2;P2;SDS_P1;SDS_P2;PMS_P1;PMS_P2;Temp;Humidity;BMP_temperature;BMP_pressure;BME280_temperature;BME280_humidity;BME280_pressure;Samples;Min_cycle;Max_cycle;Signal;HPM_P1;HPM_P2
2023/05/07 00:00:28;;;;;;;17.90;16.02;;;;;;;;;;10045187;28;20056;-70
2023/05/07 00:05:22;;;;;;;18.88;17.08;;;;;;;;;;10049152;28;20069;-70
2023/05/07 00:10:15;;;;;;;19.02;17.23;;;;;;;;;;10045567;28;20069;-71
2023/05/07 00:15:09;;;;;;;17.08;15.40;;;;;;;;;;10066092;28;20049;-69
2023/05/07 00:20:05;;;;;;;16.30;14.68;;;;;;;;;;10062906;28;20048;-70
2023/05/07 00:24:59;;;;;;;15.10;13.70;;;;;;;;;;10049100;28;20099;-69
2023/05/07 00:29:52;;;;;;;15.60;14.13;;;;;;;;;;10051759;28;20046;-71
2023/05/07 00:34:44;;;;;;;16.55;14.88;;;;;;;;;;10064854;28;20045;-71
2023/05/07 00:39:37;;;;;;;17.70;15.80;;;;;;;;;;10052171;28;20072;-70
2023/05/07 00:44:30;;;;;;;16.80;15.23;;;;;;;;;;10040218;28;20054;-71
2023/05/07 00:49:51;;;;;;;17.55;15.85;;;;;;;;;;10057071;28;20067;-70
2023/05/07 00:54:47;;;;;;;15.65;14.10;;;;;;;;;;10058498;28;20148;-70
2023/05/07 00:59:40;;;;;;;14.75;13.45;;;;;;;;;;10034970;28;20057;-70
2023/05/07 01:04:33;;;;;;;15.20;13.77;;;;;;;;;;10042073;28;20053;-71
2023/05/07 01:09:27;;;;;;;15.48;13.88;;;;;;;;;;10029063;28;20069;-68
2023/05/07 01:14:20;;;;;;;15.60;14.02;;;;;;;;;;10052571;28;20046;-71
2023/05/07 01:19:15;;;;;;;17.58;15.90;;;;;;;;;;10064125;28;20481;-71
2023/05/07 01:24:09;;;;;;;18.15;15.15;;;;;;;;;;10026927;28;20057;-71
2023/05/07 01:29:02;;;;;;;17.33;15.60;;;;;;;;;;10036823;28;20037;-72
2023/05/07 01:33:58;;;;;;;19.75;14.50;;;;;;;;;;10055934;28;20060;-71
2023/05/07 01:38:51;;;;;;;17.73;15.85;;;;;;;;;;10045001;28;20052;-71
2023/05/07 01:43:45;;;;;;;16.20;14.43;;;;;;;;;;10039851;28;20046;-70
2023/05/07 01:48:39;;;;;;;17.50;15.80;;;;;;;;;;10038735;28;20054;-69
2023/05/07 01:53:37;;;;;;;16.98;15.43;;;;;;;;;;10036123;28;20076;-70
2023/05/07 01:58:30;;;;;;;20.67;15.77;;;;;;;;;;10034433;28;20053;-73
2023/05/07 02:03:23;;;;;;;16.80;15.10;;;;;;;;;;10042674;28;20061;-71
2023/05/07 02:08:25;;;;;;;16.77;15.10;;;;;;;;;;10033463;28;20050;-71
2023/05/07 02:13:19;;;;;;;14.80;12.95;;;;;;;;;;10060731;28;20059;-72
2023/05/07 02:18:12;;;;;;;17.05;15.18;;;;;;;;;;10036091;28;20141;-71
2023/05/07 02:23:06;;;;;;;16.30;14.10;;;;;;;;;;10024102;28;20049;-72
2023/05/07 02:27:59;;;;;;;15.75;14.30;;;;;;;;;;10024648;28;20053;-72
2023/05/07 02:33:09;;;;;;;16.48;14.93;;;;;;;;;;10025109;28;20089;-72
2023/05/07 02:38:02;;;;;;;15.77;14.18;;;;;;;;;;10023276;28;20060;-71
2023/05/07 02:42:57;;;;;;;15.98;14.40;;;;;;;;;;10023236;28;20481;-71
2023/05/07 02:47:50;;;;;;;20.23;14.60;;;;;;;;;;10033131;28;20424;-71
2023/05/07 02:52:43;;;;;;;15.32;13.68;;;;;;;;;;10034796;28;20148;-72
2023/05/07 02:57:36;;;;;;;16.40;14.50;;;;;;;;;;10042870;28;20041;-71
2023/05/07 03:02:30;;;;;;;15.85;14.15;;;;;;;;;;10030012;28;20068;-72
2023/05/07 03:07:23;;;;;;;15.70;14.20;;;;;;;;;;10041975;28;20505;-71
2023/05/07 03:12:17;;;;;;;16.08;14.20;;;;;;;;;;10031315;28;20512;-72
2023/05/07 03:17:11;;;;;;;15.20;13.52;;;;;;;;;;10033464;28;20572;-69
2023/05/07 03:22:04;;;;;;;18.23;14.57;;;;;;;;;;10029794;28;20045;-71
2023/05/07 03:26:57;;;;;;;14.57;12.82;;;;;;;;;;10040572;28;20054;-72
2023/05/07 03:31:50;;;;;;;14.30;12.93;;;;;;;;;;10043570;28;20045;-71
2023/05/07 03:36:44;;;;;;;16.27;14.57;;;;;;;;;;10052027;28;20471;-72
2023/05/07 03:41:37;;;;;;;15.50;13.05;;;;;;;;;;10059231;28;20411;-71
2023/05/07 03:46:32;;;;;;;14.63;13.13;;;;;;;;;;10060496;28;20050;-71
2023/05/07 03:51:25;;;;;;;14.57;13.07;;;;;;;;;;10058095;28;20472;-72
2023/05/07 03:56:18;;;;;;;17.08;14.02;;;;;;;;;;10060186;28;20096;-71
2023/05/07 04:01:15;;;;;;;16.00;14.45;;;;;;;;;;10069611;28;20045;-71
2023/05/07 04:06:12;;;;;;;17.73;14.93;;;;;;;;;;10055840;28;20405;-72
2023/05/07 04:11:08;;;;;;;15.60;14.20;;;;;;;;;;10058044;28;20053;-71
2023/05/07 04:16:04;;;;;;;16.58;13.77;;;;;;;;;;10043314;28;20057;-72
2023/05/07 04:21:00;;;;;;;16.40;13.73;;;;;;;;;;10057425;28;20056;-71
2023/05/07 04:25:54;;;;;;;18.02;12.63;;;;;;;;;;10059472;28;20141;-71
2023/05/07 04:30:53;;;;;;;15.75;11.75;;;;;;;;;;10050584;28;20042;-72
2023/05/07 04:35:47;;;;;;;13.48;12.07;;;;;;;;;;10032537;28;20073;-71
2023/05/07 04:40:41;;;;;;;14.40;11.38;;;;;;;;;;10028508;28;20046;-72
2023/05/07 04:45:36;;;;;;;13.15;10.98;;;;;;;;;;10033121;28;20050;-70
2023/05/07 04:50:31;;;;;;;13.23;11.93;;;;;;;;;;10039857;28;20148;-72
2023/05/07 04:55:27;;;;;;;13.75;11.55;;;;;;;;;;10049157;28;20045;-71
2023/05/07 05:00:21;;;;;;;13.45;12.05;;;;;;;;;;10044634;28;20390;-71
2023/05/07 05:05:16;;;;;;;12.75;11.48;;;;;;;;;;10035634;28;20049;-71
2023/05/07 05:10:10;;;;;;;12.98;11.77;;;;;;;;;;10033769;28;20064;-70
2023/05/07 05:15:07;;;;;;;13.30;11.68;;;;;;;;;;10035583;28;20045;-78
2023/05/07 05:20:00;;;;;;;11.40;10.38;;;;;;;;;;10038663;28;20084;-78
2023/05/07 05:24:54;;;;;;;10.50;9.55;;;;;;;;;;10028966;28;20160;-82
2023/05/07 05:29:47;;;;;;;9.77;8.77;;;;;;;;;;10052579;28;20049;-76
2023/05/07 05:34:41;;;;;;;9.07;8.27;;;;;;;;;;10048180;28;20069;-79
2023/05/07 05:39:35;;;;;;;9.07;8.15;;;;;;;;;;10039514;28;21338;-76
2023/05/07 05:44:31;;;;;;;10.05;8.38;;;;;;;;;;10037184;28;20060;-76
2023/05/07 05:49:23;;;;;;;9.55;8.63;;;;;;;;;;10054784;28;20485;-81
2023/05/07 05:54:18;;;;;;;11.30;9.00;;;;;;;;;;10054669;28;20144;-80
2023/05/07 05:59:13;;;;;;;10.30;9.40;;;;;;;;;;10040245;28;20164;-79
2023/05/07 06:04:07;;;;;;;10.02;9.02;;;;;;;;;;10043717;28;20058;-76
2023/05/07 06:09:00;;;;;;;8.70;7.90;;;;;;;;;;10050943;28;20100;-70
2023/05/07 06:14:01;;;;;;;8.65;7.75;;;;;;;;;;10045326;28;20413;-71
2023/05/07 06:18:55;;;;;;;7.72;6.93;;;;;;;;;;10059019;28;20045;-70
2023/05/07 06:23:48;;;;;;;7.03;6.32;;;;;;;;;;10052492;28;20061;-71
2023/05/07 06:28:41;;;;;;;8.35;6.35;;;;;;;;;;10037798;28;20556;-69
2023/05/07 06:33:39;;;;;;;9.35;6.38;;;;;;;;;;10029264;28;20054;-70
2023/05/07 06:38:33;;;;;;;7.30;6.60;;;;;;;;;;10042279;28;20116;-70
2023/05/07 06:43:30;;;;;;;7.63;6.22;;;;;;;;;;10041158;28;20120;-69
2023/05/07 06:48:46;;;;;;;7.40;6.80;;;;;;;;;;10033405;28;20108;-72
2023/05/07 06:53:40;;;;;;;11.57;6.78;;;;;;;;;;10044210;28;20133;-72
2023/05/07 06:58:36;;;;;;;6.22;5.63;;;;;;;;;;10052080;28;20054;-71
2023/05/07 07:03:30;;;;;;;8.88;6.03;;;;;;;;;;10062767;28;20152;-71
2023/05/07 07:08:24;;;;;;;7.05;6.25;;;;;;;;;;10059048;28;20045;-70
2023/05/07 07:13:17;;;;;;;5.72;4.85;;;;;;;;;;10051120;28;20437;-68
2023/05/07 07:18:11;;;;;;;6.63;6.03;;;;;;;;;;10052538;28;20121;-71
2023/05/07 07:23:04;;;;;;;6.70;5.68;;;;;;;;;;10050924;28;20958;-71
2023/05/07 07:27:57;;;;;;;6.57;5.65;;;;;;;;;;10053225;28;20497;-71
2023/05/07 07:32:52;;;;;;;7.65;6.85;;;;;;;;;;10064546;28;20041;-68
2023/05/07 07:37:45;;;;;;;8.95;6.85;;;;;;;;;;10045035;28;20085;-68
2023/05/07 07:42:39;;;;;;;10.90;7.38;;;;;;;;;;10040211;28;20054;-69
2023/05/07 07:47:33;;;;;;;11.75;7.18;;;;;;;;;;10031740;28;20053;-71
2023/05/07 07:52:28;;;;;;;7.25;6.57;;;;;;;;;;10058396;28;20065;-69
2023/05/07 07:57:23;;;;;;;9.60;7.70;;;;;;;;;;10050149;28;20049;-73
2023/05/07 08:02:19;;;;;;;9.40;7.03;;;;;;;;;;10065536;28;20041;-74
2023/05/07 08:07:15;;;;;;;7.47;6.78;;;;;;;;;;10053259;28;20049;-74
2023/05/07 08:12:10;;;;;;;9.77;8.52;;;;;;;;;;10053983;28;20053;-69
2023/05/07 08:17:03;;;;;;;12.27;7.68;;;;;;;;;;10052701;28;20049;-69
2023/05/07 08:21:57;;;;;;;9.57;7.15;;;;;;;;;;10036262;28;20053;-67
2023/05/07 08:26:51;;;;;;;8.68;7.57;;;;;;;;;;10055196;28;20145;-67
2023/05/07 08:31:44;;;;;;;8.10;7.40;;;;;;;;;;10051282;28;20053;-68
2023/05/07 08:36:37;;;;;;;11.77;7.38;;;;;;;;;;10032397;28;20497;-69
2023/05/07 08:41:30;;;;;;;8.18;7.30;;;;;;;;;;10048942;28;20053;-68
2023/05/07 08:46:25;;;;;;;7.70;6.93;;;;;;;;;;10051201;28;20132;-68
2023/05/07 08:51:21;;;;;;;9.55;6.95;;;;;;;;;;10032515;28;20088;-68
2023/05/07 08:56:15;;;;;;;8.23;7.43;;;;;;;;;;10044148;28;20072;-69
2023/05/07 09:01:10;;;;;;;9.85;7.53;;;;;;;;;;10038129;28;20064;-68
2023/05/07 09:06:05;;;;;;;8.82;7.97;;;;;;;;;;10051020;28;20543;-69
2023/05/07 09:10:59;;;;;;;7.55;6.85;;;;;;;;;;10049506;28;20061;-70
2023/05/07 09:15:53;;;;;;;8.95;8.10;;;;;;;;;;10037314;28;20046;-69
2023/05/07 09:20:47;;;;;;;9.80;7.88;;;;;;;;;;10041990;28;20136;-70
2023/05/07 09:25:43;;;;;;;7.85;6.53;;;;;;;;;;10034542;28;20046;-70
2023/05/07 09:30:43;;;;;;;7.82;6.78;;;;;;;;;;10055960;28;20050;-68
2023/05/07 09:35:37;;;;;;;7.93;6.15;;;;;;;;;;10036676;28;20484;-73
2023/05/07 09:40:35;;;;;;;9.82;8.15;;;;;;;;;;10038829;28;20054;-76
2023/05/07 09:45:32;;;;;;;;;;;;;;;;;;10050446;28;20053;-73
2023/05/07 09:50:52;;;;;;;8.63;7.18;;;;;;;;;;10052031;28;19929;-74
2023/05/07 09:55:49;;;;;;;7.25;6.55;;;;;;;;;;10053419;28;21144;-75
2023/05/07 10:00:44;;;;;;;9.57;8.18;;;;;;;;;;10056008;28;20089;-75
2023/05/07 10:05:39;;;;;;;7.80;6.95;;;;;;;;;;10026556;28;20057;-75
2023/05/07 10:10:34;;;;;;;8.20;6.75;;;;;;;;;;10036054;28;20061;-75
2023/05/07 10:15:30;;;;;;;10.75;8.82;;;;;;;;;;10039106;28;20058;-75
2023/05/07 10:20:24;;;;;;;;;;;;;;;;;;10044057;28;20052;-74
2023/05/07 10:25:23;;;;;;;4.93;3.70;;;;;;;;;;10030959;28;19921;-73
2023/05/07 10:30:46;;;;;;;8.13;4.72;;;;;;;;;;10036098;28;20107;-72
2023/05/07 10:35:42;;;;;;;3.28;2.97;;;;;;;;;;10039086;28;20053;-73
2023/05/07 10:40:36;;;;;;;5.32;3.63;;;;;;;;;;10021239;28;20144;-73
2023/05/07 10:45:31;;;;;;;4.32;2.90;;;;;;;;;;10046005;28;20527;-73
2023/05/07 10:50:25;;;;;;;2.00;1.90;;;;;;;;;;10015879;28;20054;-73
2023/05/07 10:55:25;;;;;;;2.10;1.70;;;;;;;;;;10020707;28;20530;-71
2023/05/07 11:00:45;;;;;;;4.07;2.47;;;;;;;;;;10037705;28;20056;-71
2023/05/07 11:06:15;;;;;;;3.45;3.15;;;;;;;;;;10045652;28;20545;-70
2023/05/07 11:11:44;;;;;;;3.45;1.80;;;;;;;;;;10041055;28;20073;-71
2023/05/07 11:17:08;;;;;;;2.58;2.13;;;;;;;;;;10047554;28;20142;-71
2023/05/07 11:22:02;;;;;;;3.87;2.90;;;;;;;;;;10026611;28;20038;-70
2023/05/07 11:27:06;;;;;;;2.75;1.98;;;;;;;;;;10043965;28;20568;-70
2023/05/07 11:32:00;;;;;;;7.05;3.90;;;;;;;;;;10041532;28;20056;-68
2023/05/07 11:36:58;;;;;;;2.30;2.10;;;;;;;;;;10010088;28;20054;-69
2023/05/07 11:42:39;;;;;;;2.83;2.20;;;;;;;;;;10031026;28;20057;-68
2023/05/07 11:47:38;;;;;;;4.35;2.80;;;;;;;;;;10038271;28;20470;-70
2023/05/07 11:52:35;;;;;;;3.22;2.92;;;;;;;;;;10035374;28;20111;-67
2023/05/07 11:57:29;;;;;;;2.87;1.90;;;;;;;;;;10044682;28;20046;-68
2023/05/07 12:02:24;;;;;;;3.67;1.70;;;;;;;;;;10061122;28;20300;-65
2023/05/07 12:07:18;;;;;;;3.47;1.92;;;;;;;;;;10048246;28;20037;-65
2023/05/07 12:12:14;;;;;;;4.22;1.73;;;;;;;;;;10056811;28;20052;-66
2023/05/07 12:17:08;;;;;;;3.13;1.50;;;;;;;;;;10049307;28;20417;-66
2023/05/07 12:22:06;;;;;;;3.58;1.65;;;;;;;;;;10036850;28;20524;-66
2023/05/07 12:27:00;;;;;;;2.75;1.98;;;;;;;;;;10035973;28;20050;-66
2023/05/07 12:31:54;;;;;;;5.63;2.10;;;;;;;;;;10038903;28;20047;-66
2023/05/07 12:36:48;;;;;;;1.70;1.60;;;;;;;;;;10042192;28;20092;-66
2023/05/07 12:41:59;;;;;;;3.25;1.20;;;;;;;;;;10045929;28;20582;-66
2023/05/07 12:46:53;;;;;;;6.68;2.00;;;;;;;;;;10035495;28;20056;-66
2023/05/07 12:51:49;;;;;;;2.10;1.48;;;;;;;;;;10036864;28;20062;-66
2023/05/07 12:56:43;;;;;;;2.25;1.95;;;;;;;;;;10028899;28;20137;-66
2023/05/07 13:01:36;;;;;;;2.60;1.52;;;;;;;;;;10038247;28;20484;-66
2023/05/07 13:06:30;;;;;;;4.15;2.47;;;;;;;;;;10027267;28;20693;-66
2023/05/07 13:11:23;;;;;;;4.35;1.80;;;;;;;;;;10040726;28;20128;-66
2023/05/07 13:16:17;;;;;;;2.22;1.83;;;;;;;;;;10034758;28;20057;-66
2023/05/07 13:21:14;;;;;;;4.65;2.33;;;;;;;;;;10048490;28;20049;-66
2023/05/07 13:26:07;;;;;;;5.13;2.58;;;;;;;;;;10028392;28;20096;-66
2023/05/07 13:31:18;;;;;;;6.68;2.28;;;;;;;;;;10036676;28;20070;-66
2023/05/07 13:36:11;;;;;;;5.40;2.53;;;;;;;;;;10026230;28;20062;-66
2023/05/07 13:41:05;;;;;;;3.20;2.45;;;;;;;;;;10038816;28;20084;-66
2023/05/07 13:45:59;;;;;;;3.00;2.70;;;;;;;;;;10036625;28;20208;-65
2023/05/07 13:50:54;;;;;;;4.72;2.78;;;;;;;;;;10040027;28;20064;-68
2023/05/07 13:55:47;;;;;;;3.30;2.40;;;;;;;;;;10039939;28;20116;-65
2023/05/07 14:00:41;;;;;;;2.75;2.55;;;;;;;;;;10032784;28;20057;-65
2023/05/07 14:05:37;;;;;;;3.25;2.53;;;;;;;;;;10027795;28;20046;-68
2023/05/07 14:10:31;;;;;;;5.18;2.45;;;;;;;;;;10055346;28;20136;-67
2023/05/07 14:15:24;;;;;;;2.90;2.63;;;;;;;;;;10033182;28;20053;-67
2023/05/07 14:20:18;;;;;;;2.50;2.30;;;;;;;;;;10030376;28;20054;-68
2023/05/07 14:25:12;;;;;;;2.47;2.17;;;;;;;;;;10035467;28;20077;-67
2023/05/07 14:30:10;;;;;;;5.63;2.58;;;;;;;;;;10038090;28;20516;-68
2023/05/07 14:35:04;;;;;;;4.40;2.65;;;;;;;;;;10031734;28;20084;-68
2023/05/07 14:39:58;;;;;;;3.10;2.63;;;;;;;;;;10036015;28;20555;-68
2023/05/07 14:44:52;;;;;;;2.72;2.50;;;;;;;;;;10054392;28;20136;-67
2023/05/07 14:49:46;;;;;;;2.42;2.22;;;;;;;;;;10059007;28;20058;-66
2023/05/07 14:54:40;;;;;;;3.65;2.40;;;;;;;;;;10033651;28;20062;-67
2023/05/07 14:59:34;;;;;;;2.40;2.20;;;;;;;;;;10033623;28;20046;-67
2023/05/07 15:04:27;;;;;;;2.90;2.40;;;;;;;;;;10040043;28;20050;-67
2023/05/07 15:09:21;;;;;;;3.30;2.35;;;;;;;;;;10037760;28;20138;-67
2023/05/07 15:14:15;;;;;;;5.00;2.65;;;;;;;;;;10038214;28;20490;-67
2023/05/07 15:19:09;;;;;;;3.42;3.00;;;;;;;;;;10038168;28;20408;-67
2023/05/07 15:24:03;;;;;;;6.57;2.65;;;;;;;;;;10060468;28;20054;-67
2023/05/07 15:28:57;;;;;;;5.53;3.03;;;;;;;;;;10048758;28;20046;-66
2023/05/07 15:33:54;;;;;;;4.07;2.63;;;;;;;;;;10037107;28;20046;-68
2023/05/07 15:38:47;;;;;;;3.92;2.88;;;;;;;;;;10028558;28;20076;-66
2023/05/07 15:43:44;;;;;;;2.55;2.35;;;;;;;;;;10035066;28;20474;-66
2023/05/07 15:48:38;;;;;;;3.67;2.55;;;;;;;;;;10049369;28;20045;-66
2023/05/07 15:53:32;;;;;;;3.80;2.83;;;;;;;;;;10037656;28;20046;-66
2023/05/07 15:58:26;;;;;;;2.83;2.58;;;;;;;;;;10037107;28;20149;-66
2023/05/07 16:03:21;;;;;;;5.18;2.88;;;;;;;;;;10034979;28;20059;-66
2023/05/07 16:08:15;;;;;;;2.58;2.38;;;;;;;;;;10037800;28;20116;-66
2023/05/07 16:13:08;;;;;;;3.80;2.50;;;;;;;;;;10031717;28;20066;-66
2023/05/07 16:18:01;;;;;;;2.55;2.35;;;;;;;;;;10030600;28;20125;-66
2023/05/07 16:22:53;;;;;;;3.00;2.70;;;;;;;;;;10035718;28;20050;-66
2023/05/07 16:27:47;;;;;;;3.53;2.85;;;;;;;;;;10037926;28;20475;-66
2023/05/07 16:32:40;;;;;;;3.92;2.95;;;;;;;;;;10036222;28;20489;-67
2023/05/07 16:37:33;;;;;;;10.57;3.22;;;;;;;;;;10044634;28;20056;-66
2023/05/07 16:42:28;;;;;;;5.35;3.00;;;;;;;;;;10044942;28;20520;-66
2023/05/07 16:47:22;;;;;;;7.90;3.10;;;;;;;;;;10060119;28;20054;-66
2023/05/07 16:52:16;;;;;;;3.25;3.00;;;;;;;;;;10044279;28;20084;-66
2023/05/07 16:57:09;;;;;;;4.53;3.17;;;;;;;;;;10054128;28;20053;-65
2023/05/07 17:02:02;;;;;;;7.20;3.78;;;;;;;;;;10053096;28;20115;-70
2023/05/07 17:06:56;;;;;;;4.20;3.80;;;;;;;;;;10042116;28;20053;-68
2023/05/07 17:11:50;;;;;;;5.65;3.83;;;;;;;;;;10039543;28;20053;-70
2023/05/07 17:16:45;;;;;;;5.78;3.60;;;;;;;;;;10044164;28;20050;-71
2023/05/07 17:21:38;;;;;;;5.47;4.85;;;;;;;;;;10043612;28;20053;-73
2023/05/07 17:26:35;;;;;;;5.63;4.47;;;;;;;;;;10045670;28;20053;-73
2023/05/07 17:31:28;;;;;;;5.85;5.28;;;;;;;;;;10051166;28;20053;-75
2023/05/07 17:36:22;;;;;;;6.43;4.88;;;;;;;;;;10054327;28;20056;-75
2023/05/07 17:41:15;;;;;;;5.03;4.50;;;;;;;;;;10043913;28;20042;-74
2023/05/07 17:46:09;;;;;;;8.20;4.43;;;;;;;;;;10050631;28;20097;-75
2023/05/07 17:51:02;;;;;;;9.27;6.72;;;;;;;;;;10058108;28;20485;-75
2023/05/07 17:55:56;;;;;;;4.70;4.18;;;;;;;;;;10061976;28;20058;-70
2023/05/07 18:00:50;;;;;;;7.82;4.75;;;;;;;;;;10060179;28;20503;-70
2023/05/07 18:05:43;;;;;;;5.07;4.57;;;;;;;;;;10027862;28;20556;-70
2023/05/07 18:10:36;;;;;;;9.88;5.30;;;;;;;;;;10030716;28;20067;-70
2023/05/07 18:15:30;;;;;;;8.73;7.10;;;;;;;;;;10033713;28;20467;-74
2023/05/07 18:20:24;;;;;;;7.95;4.93;;;;;;;;;;10038347;28;20463;-73
2023/05/07 18:25:17;;;;;;;7.63;5.68;;;;;;;;;;10042907;28;20050;-74
2023/05/07 18:30:12;;;;;;;10.18;5.35;;;;;;;;;;10043294;28;20527;-74
2023/05/07 18:35:06;;;;;;;8.02;5.70;;;;;;;;;;10034789;28;20053;-76
2023/05/07 18:40:02;;;;;;;7.18;6.43;;;;;;;;;;10031809;28;20525;-82
2023/05/07 18:44:56;;;;;;;8.50;7.53;;;;;;;;;;10039971;28;20505;-87
2023/05/07 18:49:48;;;;;;;12.10;8.57;;;;;;;;;;10036249;28;20145;-82
2023/05/07 18:54:42;;;;;;;10.00;8.30;;;;;;;;;;10046106;28;20508;-83
2023/05/07 18:59:35;;;;;;;8.38;7.57;;;;;;;;;;10054451;28;20636;-78
2023/05/07 19:04:29;;;;;;;8.95;8.20;;;;;;;;;;10055295;28;20107;-85
2023/05/07 19:09:22;;;;;;;10.82;8.50;;;;;;;;;;10044717;28;20080;-81
2023/05/07 19:14:18;;;;;;;10.00;8.32;;;;;;;;;;10054454;28;20062;-80
2023/05/07 19:19:14;;;;;;;13.20;9.88;;;;;;;;;;10050323;28;20061;-84
2023/05/07 19:24:08;;;;;;;11.20;10.15;;;;;;;;;;10045470;28;20042;-72
2023/05/07 19:29:01;;;;;;;15.40;10.10;;;;;;;;;;10040458;28;20470;-68
2023/05/07 19:34:12;;;;;;;12.55;9.35;;;;;;;;;;10040246;28;20394;-66
2023/05/07 19:39:05;;;;;;;10.65;9.60;;;;;;;;;;10057480;28;20390;-67
2023/05/07 19:43:59;;;;;;;11.10;9.95;;;;;;;;;;10046364;28;20125;-67
2023/05/07 19:48:53;;;;;;;12.93;10.10;;;;;;;;;;10045253;28;20054;-66
2023/05/07 19:53:46;;;;;;;12.43;10.32;;;;;;;;;;10045155;28;20050;-76
2023/05/07 19:58:40;;;;;;;13.35;11.93;;;;;;;;;;10048214;28;20049;-81
2023/05/07 20:03:34;;;;;;;12.93;11.73;;;;;;;;;;10044381;28;20049;-78
2023/05/07 20:08:27;;;;;;;17.38;12.70;;;;;;;;;;10048721;28;20053;-75
2023/05/07 20:13:20;;;;;;;15.10;12.68;;;;;;;;;;10051526;28;20467;-75
2023/05/07 20:18:14;;;;;;;16.42;13.73;;;;;;;;;;10048466;28;20054;-71
2023/05/07 20:23:08;;;;;;;17.17;15.27;;;;;;;;;;10044346;28;20100;-73
2023/05/07 20:28:01;;;;;;;19.42;16.33;;;;;;;;;;10059424;28;20080;-74
2023/05/07 20:32:54;;;;;;;16.98;15.45;;;;;;;;;;10055108;28;20073;-74
2023/05/07 20:37:47;;;;;;;16.02;12.48;;;;;;;;;;10054126;28;20412;-73
2023/05/07 20:42:41;;;;;;;10.95;9.93;;;;;;;;;;10048726;28;20165;-71
2023/05/07 20:47:34;;;;;;;11.52;8.90;;;;;;;;;;10047686;28;20049;-73
2023/05/07 20:52:27;;;;;;;10.27;8.68;;;;;;;;;;10045332;28;20107;-73
2023/05/07 20:57:20;;;;;;;11.15;8.73;;;;;;;;;;10047779;28;20050;-72
2023/05/07 21:02:13;;;;;;;10.77;9.73;;;;;;;;;;10043099;28;20141;-73
2023/05/07 21:07:08;;;;;;;9.32;8.48;;;;;;;;;;10045911;28;20045;-73
2023/05/07 21:12:01;;;;;;;11.43;10.43;;;;;;;;;;10050299;28;20741;-73
2023/05/07 21:16:55;;;;;;;12.45;11.35;;;;;;;;;;10044957;28;20412;-71
2023/05/07 21:21:48;;;;;;;13.02;11.85;;;;;;;;;;10041524;28;20061;-71
2023/05/07 21:26:42;;;;;;;13.63;12.20;;;;;;;;;;10052614;28;20108;-70
2023/05/07 21:31:35;;;;;;;14.82;12.90;;;;;;;;;;10055268;28;20145;-74
2023/05/07 21:36:28;;;;;;;14.20;12.85;;;;;;;;;;10046541;28;20045;-73
2023/05/07 21:41:21;;;;;;;14.75;13.35;;;;;;;;;;10045436;28;20053;-73
2023/05/07 21:46:16;;;;;;;15.50;14.00;;;;;;;;;;10043873;28;20559;-72
2023/05/07 21:51:10;;;;;;;16.02;14.43;;;;;;;;;;10046484;28;20064;-75
2023/05/07 21:56:05;;;;;;;18.35;14.70;;;;;;;;;;10042354;28;20478;-75
2023/05/07 22:01:00;;;;;;;16.70;15.10;;;;;;;;;;10044714;28;20467;-72
2023/05/07 22:05:53;;;;;;;18.08;15.45;;;;;;;;;;10051014;28;20401;-73
2023/05/07 22:10:46;;;;;;;17.35;15.60;;;;;;;;;;10050448;28;20073;-72
2023/05/07 22:15:40;;;;;;;14.77;13.35;;;;;;;;;;10061831;28;20056;-72
2023/05/07 22:20:51;;;;;;;16.00;14.50;;;;;;;;;;10048393;28;20448;-70
2023/05/07 22:25:44;;;;;;;16.27;12.38;;;;;;;;;;10032954;28;20053;-73
2023/05/07 22:30:38;;;;;;;10.02;8.98;;;;;;;;;;10047741;28;20052;-73
2023/05/07 22:35:32;;;;;;;10.18;8.35;;;;;;;;;;10038914;28;20065;-72
2023/05/07 22:40:26;;;;;;;9.15;7.45;;;;;;;;;;10048556;28;20141;-73
2023/05/07 22:45:20;;;;;;;11.23;8.32;;;;;;;;;;10043085;28;20127;-72
2023/05/07 22:50:13;;;;;;;8.30;7.50;;;;;;;;;;10040653;28;20141;-73
2023/05/07 22:55:08;;;;;;;8.50;7.68;;;;;;;;;;10045615;28;20069;-72
2023/05/07 23:00:02;;;;;;;8.57;7.72;;;;;;;;;;10047496;28;20509;-73
2023/05/07 23:04:59;;;;;;;8.57;7.78;;;;;;;;;;10038829;28;20084;-73
2023/05/07 23:09:52;;;;;;;12.85;8.68;;;;;;;;;;10049719;28;20050;-72
2023/05/07 23:14:45;;;;;;;9.10;7.95;;;;;;;;;;10048646;28;20056;-73
2023/05/07 23:19:38;;;;;;;9.30;7.45;;;;;;;;;;10041206;28;20038;-74
2023/05/07 23:24:33;;;;;;;8.93;7.95;;;;;;;;;;10044645;28;20064;-74
2023/05/07 23:29:26;;;;;;;10.15;9.18;;;;;;;;;;10045049;28;20088;-71
2023/05/07 23:34:22;;;;;;;12.32;10.07;;;;;;;;;;10047673;28;20141;-72
2023/05/07 23:39:15;;;;;;;15.18;13.30;;;;;;;;;;10050530;28;20144;-70
2023/05/07 23:44:09;;;;;;;14.05;12.65;;;;;;;;;;10060009;28;20049;-73
2023/05/07 23:49:03;;;;;;;16.48;14.32;;;;;;;;;;10043560;28;20491;-71
2023/05/07 23:53:56;;;;;;;20.75;14.70;;;;;;;;;;10057352;28;20077;-72
2023/05/07 23:58:50;;;;;;;17.67;15.15;;;;;;;;;;10048284;28;20509;-73
